Terminal Aerodrome Forecast
Issued by NWS

Home | Current Version | Previous Version | Text Only | Print | Product List | Glossary On
Versions: 1 2 3 4 5 6 7 8 9 10
144
FTUS43 KIWX 240529
TAFSBN
TAF
KSBN 240529Z 2406/2506 11003KT P6SM FEW200
     FM241400 12010KT P6SM SKC=

USA.gov is the U.S. government's official web portal to all federal, state and local government web resources and services.